createdAt,value
2023-01-02T00:01:40.177Z,79.40
2023-01-02T00:06:48.059Z,79.09
2023-01-02T00:11:54.364Z,79.86
2023-01-02T00:17:00.648Z,79.50
2023-01-02T00:22:08.298Z,79.37
2023-01-02T00:27:14.741Z,79.57
2023-01-02T00:32:21.079Z,79.55
2023-01-02T00:37:28.984Z,79.55
2023-01-02T00:42:35.586Z,79.53
2023-01-02T00:47:42.095Z,79.40
2023-01-02T00:52:49.997Z,79.46
2023-01-02T00:57:56.271Z,79.48
2023-01-02T01:03:02.841Z,79.64
2023-01-02T01:08:10.785Z,79.85
2023-01-02T01:13:18.157Z,79.97
2023-01-02T01:18:24.467Z,80.20
2023-01-02T01:23:32.103Z,79.94
2023-01-02T01:28:38.625Z,80.22
2023-01-02T01:33:45.882Z,80.02
2023-01-02T01:38:53.986Z,80.24
2023-01-02T01:44:01.907Z,80.32
2023-01-02T01:49:14.426Z,80.29
2023-01-02T01:54:27.341Z,79.52
2023-01-02T01:59:35.802Z,80.21
2023-01-02T02:04:44.250Z,80.00
2023-01-02T02:09:58.482Z,80.28
2023-01-02T02:15:06.234Z,80.21
2023-01-02T02:20:33.140Z,80.33
2023-01-02T02:26:13.288Z,80.14
2023-01-02T02:31:32.123Z,80.47
2023-01-02T02:36:45.272Z,80.16
2023-01-02T02:42:04.237Z,80.19
2023-01-02T02:47:24.003Z,80.35
2023-01-02T02:52:35.027Z,80.31
2023-01-02T02:57:45.351Z,80.15
2023-01-02T03:02:53.508Z,80.25
2023-01-02T03:08:07.947Z,80.10
2023-01-02T03:13:21.938Z,80.02
2023-01-02T03:18:37.431Z,80.15
2023-01-02T03:23:46.974Z,79.91
2023-01-02T03:28:59.657Z,80.49
2023-01-02T03:34:15.958Z,80.19
2023-01-02T03:39:26.788Z,80.14
2023-01-02T03:44:41.646Z,80.40
2023-01-02T03:49:55.293Z,80.67
2023-01-02T03:55:02.905Z,80.55
2023-01-02T04:00:13.920Z,80.65
2023-01-02T04:05:27.808Z,80.49
2023-01-02T04:10:39.172Z,81.36
2023-01-02T04:15:49.260Z,82.64
2023-01-02T04:21:03.542Z,82.62
2023-01-02T04:26:15.165Z,83.18
2023-01-02T04:31:29.311Z,83.67
2023-01-02T04:36:41.642Z,83.46
2023-01-02T04:41:48.176Z,84.37
2023-01-02T04:46:54.739Z,85.08
2023-01-02T04:52:02.682Z,84.99
2023-01-02T04:57:09.509Z,84.62
2023-01-02T05:02:16.199Z,85.67
2023-01-02T05:07:24.494Z,86.24
2023-01-02T05:12:30.774Z,85.62
2023-01-02T05:17:37.971Z,85.32
2023-01-02T05:23:03.460Z,85.85
2023-01-02T05:28:09.804Z,85.05
2023-01-02T05:33:16.694Z,85.02
2023-01-02T05:38:24.547Z,85.01
2023-01-02T05:43:33.622Z,84.67
2023-01-02T05:48:40.356Z,84.92
2023-01-02T05:53:49.548Z,84.92
2023-01-02T05:58:56.287Z,84.69
2023-01-02T06:04:03.262Z,84.59
2023-01-02T06:09:14.954Z,84.43
2023-01-02T06:14:22.659Z,84.24
2023-01-02T06:19:29.768Z,84.44
2023-01-02T06:24:37.737Z,84.22
2023-01-02T06:29:44.180Z,84.01
2023-01-02T06:34:53.846Z,84.04
2023-01-02T06:40:01.810Z,83.53
2023-01-02T06:45:10.156Z,83.75
2023-01-02T06:50:16.400Z,83.61
2023-01-02T06:55:24.481Z,84.36
2023-01-02T07:00:31.106Z,85.23
2023-01-02T07:05:37.689Z,85.55
2023-01-02T07:10:52.544Z,85.51
2023-01-02T07:16:03.107Z,85.80
2023-01-02T07:21:11.708Z,85.41
2023-01-02T07:26:19.542Z,85.21
2023-01-02T07:31:26.871Z,85.47
2023-01-02T07:36:33.129Z,85.94
2023-01-02T07:41:40.872Z,85.98
2023-01-02T07:46:53.500Z,85.78
2023-01-02T07:51:59.929Z,86.06
2023-01-02T07:57:07.943Z,86.35
2023-01-02T08:02:14.647Z,86.14
2023-01-02T08:07:22.366Z,86.19
2023-01-02T08:12:30.387Z,85.97
2023-01-02T08:17:36.868Z,86.17
2023-01-02T08:22:43.186Z,86.17
2023-01-02T08:27:53.229Z,86.60
2023-01-02T08:32:59.515Z,86.32
2023-01-02T08:38:05.849Z,86.23
2023-01-02T08:43:16.187Z,85.75
2023-01-02T08:48:23.105Z,85.60
2023-01-02T08:53:30.592Z,85.51
2023-01-02T08:58:38.438Z,85.19
2023-01-02T09:03:44.947Z,85.16
2023-01-02T09:08:53.182Z,85.12
2023-01-02T09:14:02.240Z,84.90
2023-01-02T09:19:08.406Z,84.76
2023-01-02T09:24:15.292Z,84.69
2023-01-02T09:29:23.138Z,84.50
2023-01-02T09:34:29.722Z,84.78
2023-01-02T09:39:35.993Z,84.67
2023-01-02T09:44:48.804Z,84.51
2023-01-02T09:49:58.399Z,84.33
2023-01-02T09:55:15.257Z,84.41
2023-01-02T10:00:26.614Z,84.99
2023-01-02T10:06:02.807Z,84.52
2023-01-02T10:11:32.484Z,84.31
2023-01-02T10:16:44.583Z,83.97
2023-01-02T10:21:54.698Z,84.14
2023-01-02T10:27:03.497Z,84.48
2023-01-02T10:32:18.084Z,83.97
2023-01-02T10:37:28.440Z,83.69
2023-01-02T10:42:36.138Z,83.67
2023-01-02T10:47:45.009Z,83.58
2023-01-02T10:52:53.829Z,83.90
2023-01-02T10:58:06.037Z,83.79
2023-01-02T11:03:22.699Z,83.95
2023-01-02T11:08:39.641Z,83.46
2023-01-02T11:13:54.505Z,83.34
2023-01-02T11:19:04.556Z,83.43
2023-01-02T11:24:17.320Z,83.00
2023-01-02T11:29:33.384Z,83.13
2023-01-02T11:34:55.223Z,82.87
2023-01-02T11:40:04.526Z,83.03
2023-01-02T11:45:15.530Z,82.59
2023-01-02T11:50:28.554Z,82.43
2023-01-02T11:55:44.072Z,82.47
2023-01-02T12:00:56.314Z,81.99
2023-01-02T12:06:18.665Z,81.60
2023-01-02T12:11:41.206Z,82.09
2023-01-02T12:16:57.604Z,81.72
2023-01-02T12:22:30.644Z,81.69
2023-01-02T12:27:48.220Z,81.82
2023-01-02T12:33:31.615Z,81.94
2023-01-02T12:39:09.144Z,81.67
2023-01-02T12:44:33.865Z,81.31
2023-01-02T12:50:04.182Z,81.79
2023-01-02T12:55:39.040Z,81.37
2023-01-02T13:01:01.878Z,81.92
2023-01-02T13:06:45.404Z,82.35
2023-01-02T13:11:50.084Z,82.13
2023-01-02T13:17:08.449Z,82.37
2023-01-02T13:22:29.478Z,82.40
2023-01-02T13:27:37.281Z,82.56
2023-01-02T13:32:43.636Z,82.75
2023-01-02T13:37:50.198Z,82.54
2023-01-02T13:43:03.907Z,82.68
2023-01-02T13:48:32.067Z,82.11
2023-01-02T13:53:41.929Z,81.39
2023-01-02T13:58:53.155Z,81.39
2023-01-02T14:04:35.787Z,81.37
2023-01-02T14:10:09.526Z,81.39
2023-01-02T14:15:25.000Z,81.52
2023-01-02T14:20:35.172Z,81.75
2023-01-02T14:25:50.402Z,81.60
2023-01-02T14:31:01.104Z,81.85
2023-01-02T14:36:12.348Z,82.06
2023-01-02T14:42:29.389Z,82.73
2023-01-02T14:47:41.233Z,82.61
2023-01-02T14:52:54.559Z,82.28
2023-01-02T14:58:02.637Z,82.54
2023-01-02T15:03:23.467Z,82.29
2023-01-02T15:08:39.637Z,82.57
2023-01-02T15:14:04.128Z,82.51
2023-01-02T15:19:23.752Z,82.35
2023-01-02T15:24:31.905Z,82.05
2023-01-02T15:29:47.431Z,82.30
2023-01-02T15:35:13.407Z,82.28
2023-01-02T15:40:32.180Z,82.77
2023-01-02T15:45:39.771Z,82.83
2023-01-02T15:50:50.546Z,82.93
2023-01-02T15:55:58.443Z,82.98
2023-01-02T16:01:18.658Z,83.45
2023-01-02T16:06:34.520Z,83.34
2023-01-02T16:11:48.854Z,83.52
2023-01-02T16:17:04.552Z,83.32
2023-01-02T16:22:22.438Z,83.68
2023-01-02T16:27:34.135Z,83.83
2023-01-02T16:32:50.246Z,83.86
2023-01-02T16:38:00.180Z,83.91
2023-01-02T16:43:08.268Z,84.05
2023-01-02T16:48:20.690Z,83.86
2023-01-02T16:53:32.651Z,83.60
2023-01-02T16:58:39.033Z,83.63
2023-01-02T17:03:46.190Z,83.33
2023-01-02T17:08:54.526Z,83.18
2023-01-02T17:14:02.037Z,83.40
2023-01-02T17:19:08.607Z,83.02
2023-01-02T17:24:17.458Z,83.07
2023-01-02T17:29:24.313Z,83.66
2023-01-02T17:34:30.983Z,83.81
2023-01-02T17:39:39.027Z,83.90
2023-01-02T17:44:45.828Z,83.58
2023-01-02T17:49:52.368Z,83.88
2023-01-02T17:55:00.877Z,83.66
2023-01-02T18:00:10.850Z,83.70
2023-01-02T18:05:20.324Z,83.59
2023-01-02T18:10:32.942Z,83.79
2023-01-02T18:15:41.746Z,84.22
2023-01-02T18:20:49.004Z,84.07
2023-01-02T18:25:56.991Z,83.89
2023-01-02T18:31:03.742Z,83.69
2023-01-02T18:36:21.673Z,83.79
2023-01-02T18:41:32.266Z,83.94
2023-01-02T18:47:03.157Z,84.00
2023-01-02T18:52:25.490Z,84.17
2023-01-02T18:57:37.840Z,84.71
2023-01-02T19:02:57.563Z,84.65
2023-01-02T19:08:22.509Z,84.34
2023-01-02T19:13:35.864Z,84.35
2023-01-02T19:18:46.066Z,84.42
2023-01-02T19:23:59.624Z,84.52
2023-01-02T19:29:21.407Z,84.68
2023-01-02T19:34:44.738Z,84.92
2023-01-02T19:39:59.683Z,85.00
2023-01-02T19:45:13.137Z,85.60
2023-01-02T19:50:24.835Z,85.14
2023-01-02T19:55:32.726Z,85.29
2023-01-02T20:00:47.959Z,85.55
2023-01-02T20:05:56.730Z,85.39
2023-01-02T20:11:05.234Z,85.04
2023-01-02T20:16:16.637Z,85.00
2023-01-02T20:21:23.764Z,85.03
2023-01-02T20:26:31.385Z,84.96
2023-01-02T20:31:42.186Z,84.59
2023-01-02T20:36:51.657Z,84.68
2023-01-02T20:41:59.772Z,84.75
2023-01-02T20:47:09.444Z,84.56
2023-01-02T20:52:20.412Z,84.63
2023-01-02T20:57:28.049Z,84.63
2023-01-02T21:02:40.277Z,84.97
2023-01-02T21:07:48.656Z,84.88
2023-01-02T21:13:11.338Z,84.76
2023-01-02T21:18:22.575Z,85.12
2023-01-02T21:23:31.929Z,84.76
2023-01-02T21:28:40.994Z,84.71
2023-01-02T21:33:49.400Z,84.89
2023-01-02T21:38:55.905Z,84.73
2023-01-02T21:44:02.487Z,84.65
2023-01-02T21:49:10.349Z,84.59
2023-01-02T21:54:17.046Z,84.82
2023-01-02T21:59:25.745Z,84.23
2023-01-02T22:04:34.024Z,84.42
2023-01-02T22:09:41.806Z,84.21
2023-01-02T22:14:48.488Z,84.42
2023-01-02T22:19:56.755Z,84.04
2023-01-02T22:25:03.668Z,83.98
2023-01-02T22:30:23.308Z,84.13
2023-01-02T22:35:33.087Z,83.71
2023-01-02T22:40:39.681Z,83.63
2023-01-02T22:45:53.022Z,83.84
2023-01-02T22:51:02.965Z,83.67
2023-01-02T22:56:16.023Z,83.25
2023-01-02T23:01:31.364Z,83.05
2023-01-02T23:06:57.910Z,83.08
2023-01-02T23:12:06.714Z,82.85
2023-01-02T23:17:31.315Z,82.50
2023-01-02T23:22:39.102Z,82.80
2023-01-02T23:27:45.456Z,82.13
2023-01-02T23:32:51.825Z,82.27
2023-01-02T23:37:59.653Z,82.28
2023-01-02T23:43:06.016Z,82.00
2023-01-02T23:48:12.293Z,81.79
2023-01-02T23:53:20.355Z,81.67
2023-01-02T23:58:27.395Z,81.78
